Time;durP1;ratioP1;P1;durP2;ratioP2;P2;SDS_P1;SDS_P2;PMS_P1;PMS_P2;Temp;Humidity;BMP_temperature;BMP_pressure;BME280_temperature;BME280_humidity;BME280_pressure;Samples;Min_cycle;Max_cycle;Signal;HPM_P1;HPM_P2
2022/07/19 00:51:55;;;;;;;2.03;1.58;;;17.30;99.90;;;;;;5809446;23;20051;-79
2022/07/19 00:54:22;;;;;;;3.75;1.50;;;17.40;99.90;;;;;;4936518;29;20374;-80
2022/07/19 00:56:49;;;;;;;1.65;1.55;;;17.30;99.90;;;;;;4936235;29;20035;-78
2022/07/19 00:59:15;;;;;;;2.53;1.50;;;17.30;99.90;;;;;;4936754;29;20039;-79
2022/07/19 01:01:43;;;;;;;2.50;1.40;;;17.30;99.90;;;;;;4935958;29;20024;-80
2022/07/19 01:04:10;;;;;;;2.97;1.98;;;17.20;99.90;;;;;;4936412;29;20039;-79
2022/07/19 01:06:36;;;;;;;4.60;1.75;;;17.10;99.90;;;;;;4936682;29;20026;-80
2022/07/19 01:09:03;;;;;;;1.88;1.65;;;17.10;99.90;;;;;;4935989;29;20050;-81
2022/07/19 01:11:29;;;;;;;2.75;1.85;;;17.10;99.90;;;;;;4936016;29;20020;-80
2022/07/19 01:13:55;;;;;;;5.45;1.73;;;17.00;99.90;;;;;;4936094;29;20497;-79
2022/07/19 01:16:22;;;;;;;3.75;1.92;;;17.00;99.90;;;;;;4934548;29;20056;-79
2022/07/19 01:18:50;;;;;;;3.70;1.75;;;17.00;99.90;;;;;;4936109;29;20071;-78
2022/07/19 01:21:20;;;;;;;3.08;2.10;;;17.00;99.90;;;;;;4935865;29;20027;-79
2022/07/19 01:23:47;;;;;;;2.97;1.65;;;17.00;99.90;;;;;;4935412;29;20048;-78
2022/07/19 01:26:13;;;;;;;4.78;2.10;;;17.00;99.90;;;;;;4935357;29;20662;-79
2022/07/19 01:28:39;;;;;;;2.13;1.83;;;16.90;99.90;;;;;;4935196;29;20062;-77
2022/07/19 01:31:04;;;;;;;5.43;2.10;;;16.90;99.90;;;;;;4934549;29;20024;-79
2022/07/19 01:33:30;;;;;;;2.03;1.85;;;16.90;99.90;;;;;;4934999;29;20382;-78
2022/07/19 01:35:56;;;;;;;6.88;2.20;;;16.90;99.90;;;;;;4935618;29;20062;-78
2022/07/19 01:38:22;;;;;;;3.00;2.42;;;16.80;99.90;;;;;;4934123;29;20024;-78
2022/07/19 01:40:47;;;;;;;3.35;1.77;;;16.80;99.90;;;;;;4935403;29;20078;-78
2022/07/19 01:43:13;;;;;;;2.88;2.13;;;16.70;99.90;;;;;;4935053;29;20024;-78
2022/07/19 01:45:39;;;;;;;2.35;2.00;;;16.80;99.90;;;;;;4935612;29;20034;-78
2022/07/19 01:48:05;;;;;;;4.00;2.10;;;16.70;99.90;;;;;;4935354;29;20026;-78
2022/07/19 01:50:31;;;;;;;4.57;2.15;;;16.70;99.90;;;;;;4935048;29;20032;-78
2022/07/19 02:52:30;;;;;;;2.83;1.88;;;16.30;99.90;;;;;;5605052;23;20524;-77
2022/07/19 02:54:56;;;;;;;2.78;2.25;;;16.30;99.90;;;;;;4933799;29;20086;-76
2022/07/19 02:57:22;;;;;;;4.10;2.40;;;16.20;99.90;;;;;;4934096;29;20019;-76
2022/07/19 02:59:47;;;;;;;2.97;2.50;;;16.20;99.90;;;;;;4934130;29;20032;-78
2022/07/19 03:02:13;;;;;;;2.45;2.25;;;16.20;99.90;;;;;;4934239;29;20055;-78
2022/07/19 03:04:39;;;;;;;3.20;2.28;;;16.20;99.90;;;;;;4933776;29;20058;-78
2022/07/19 03:07:05;;;;;;;3.08;2.10;;;16.10;99.90;;;;;;4933497;29;20475;-78
2022/07/19 03:09:30;;;;;;;4.63;2.65;;;16.10;99.90;;;;;;4934200;29;20035;-78
2022/07/19 03:11:56;;;;;;;2.67;2.00;;;16.10;99.90;;;;;;4934063;29;20393;-78
2022/07/19 03:14:22;;;;;;;2.55;2.20;;;16.00;99.90;;;;;;4934147;29;20401;-78
2022/07/19 03:16:47;;;;;;;3.15;2.80;;;16.00;99.90;;;;;;4934139;29;20027;-78
2022/07/19 03:19:13;;;;;;;5.38;2.47;;;15.90;99.90;;;;;;4933988;29;20639;-77
2022/07/19 03:21:39;;;;;;;4.40;2.15;;;15.90;99.90;;;;;;4933820;29;20024;-76
2022/07/19 03:24:05;;;;;;;3.13;2.13;;;15.90;99.90;;;;;;4933734;29;20031;-76
2022/07/19 03:26:31;;;;;;;3.92;2.28;;;15.90;99.90;;;;;;4934169;29;20027;-76
2022/07/19 03:28:56;;;;;;;4.75;2.47;;;15.80;99.90;;;;;;4932485;29;20023;-77
2022/07/19 03:31:22;;;;;;;2.60;2.10;;;15.80;99.90;;;;;;4933717;29;20027;-76
2022/07/19 03:33:48;;;;;;;3.45;1.90;;;15.80;99.90;;;;;;4933584;29;20127;-76
2022/07/19 03:36:14;;;;;;;4.35;2.00;;;15.80;99.90;;;;;;4933648;29;20102;-75
2022/07/19 03:38:39;;;;;;;2.85;2.20;;;15.70;99.90;;;;;;4933427;29;20015;-75
2022/07/19 03:41:05;;;;;;;4.60;2.33;;;15.70;99.90;;;;;;4933822;29;20436;-75
2022/07/19 03:43:31;;;;;;;5.32;2.28;;;15.70;99.90;;;;;;4933491;29;20071;-75
2022/07/19 03:45:57;;;;;;;4.40;2.45;;;15.70;99.90;;;;;;4933715;29;20619;-75
2022/07/19 03:48:22;;;;;;;4.10;2.22;;;15.70;99.90;;;;;;4933610;29;20030;-78
2022/07/19 03:50:48;;;;;;;4.72;2.15;;;15.70;99.90;;;;;;4932688;29;20032;-76
2022/07/19 04:52:47;;;;;;;5.47;2.60;;;15.90;99.90;;;;;;5526589;23;20059;-75
2022/07/19 04:55:13;;;;;;;5.15;2.30;;;15.90;99.90;;;;;;4935485;29;20043;-77
2022/07/19 04:57:39;;;;;;;3.20;2.25;;;16.00;99.90;;;;;;4936575;29;20032;-77
2022/07/19 05:00:09;;;;;;;6.20;2.67;;;16.00;99.90;;;;;;4936247;29;20028;-78
2022/07/19 05:02:35;;;;;;;5.82;3.17;;;16.10;99.90;;;;;;4936161;29;20051;-77
2022/07/19 05:05:02;;;;;;;4.78;2.38;;;16.10;99.90;;;;;;4935704;29;20370;-78
2022/07/19 05:07:28;;;;;;;3.83;2.28;;;16.20;99.90;;;;;;4935686;29;20086;-78
2022/07/19 05:09:53;;;;;;;3.67;2.47;;;16.20;99.90;;;;;;4935567;29;20036;-78
2022/07/19 05:12:19;;;;;;;5.45;2.65;;;16.30;99.90;;;;;;4935900;29;20032;-77
2022/07/19 05:14:45;;;;;;;5.68;2.40;;;16.30;99.90;;;;;;4935935;29;20075;-78
2022/07/19 05:17:11;;;;;;;3.28;2.42;;;16.40;99.90;;;;;;4935896;29;20023;-78
2022/07/19 05:19:37;;;;;;;4.65;2.17;;;16.40;99.90;;;;;;4936081;29;20441;-78
2022/07/19 05:22:03;;;;;;;7.70;2.42;;;16.50;99.90;;;;;;4935945;29;20118;-76
2022/07/19 05:24:29;;;;;;;3.30;2.00;;;16.60;99.90;;;;;;4935960;29;20026;-76
2022/07/19 05:26:54;;;;;;;3.65;2.35;;;16.80;99.90;;;;;;4934641;29;20167;-77
2022/07/19 05:29:20;;;;;;;2.67;2.35;;;16.90;99.90;;;;;;4936069;29;20075;-76
2022/07/19 05:31:46;;;;;;;2.83;1.90;;;17.00;99.90;;;;;;4935922;29;20020;-77
2022/07/19 05:34:12;;;;;;;2.72;2.30;;;17.10;99.90;;;;;;4935263;29;20102;-77
2022/07/19 05:36:38;;;;;;;2.53;2.20;;;17.20;99.90;;;;;;4933992;29;20028;-78
2022/07/19 05:39:04;;;;;;;3.20;2.15;;;17.30;99.90;;;;;;4935068;29;20111;-78
2022/07/19 05:41:30;;;;;;;3.05;2.30;;;17.30;99.90;;;;;;4935447;29;20114;-77
2022/07/19 05:43:55;;;;;;;6.28;2.30;;;17.40;99.90;;;;;;4935535;29;20027;-77
2022/07/19 05:46:21;;;;;;;5.05;2.38;;;17.40;99.90;;;;;;4935821;29;20477;-77
2022/07/19 05:48:48;;;;;;;2.42;2.05;;;17.50;99.90;;;;;;4935574;29;20043;-77
2022/07/19 05:51:14;;;;;;;4.75;2.35;;;17.60;99.90;;;;;;4935390;29;20119;-78
2022/07/19 06:53:13;;;;;;;3.45;1.40;;;23.70;95.40;;;;;;5391289;23;20056;-79
2022/07/19 06:55:39;;;;;;;4.00;1.40;;;23.80;95.20;;;;;;4932910;29;20047;-79
2022/07/19 06:58:05;;;;;;;5.13;2.03;;;23.80;96.00;;;;;;4932803;29;20015;-79
2022/07/19 07:00:31;;;;;;;2.03;1.30;;;23.80;96.20;;;;;;4933029;29;20397;-79
2022/07/19 07:02:56;;;;;;;3.03;1.27;;;23.70;96.80;;;;;;4933190;29;20068;-85
2022/07/19 07:05:22;;;;;;;3.78;1.98;;;23.80;99.90;;;;;;4931652;29;20024;-77
2022/07/19 07:07:51;;;;;;;3.17;1.10;;;23.80;97.00;;;;;;4934099;29;20031;-78
2022/07/19 07:10:17;;;;;;;4.63;1.38;;;23.90;96.30;;;;;;4934014;29;20477;-76
2022/07/19 07:12:43;;;;;;;1.67;0.90;;;24.00;95.70;;;;;;4933439;29;20035;-76
2022/07/19 07:15:09;;;;;;;3.30;1.30;;;24.10;95.00;;;;;;4933918;29;20039;-75
2022/07/19 07:17:36;;;;;;;2.78;1.23;;;24.30;95.80;;;;;;4933712;29;20494;-75
2022/07/19 07:20:04;;;;;;;3.20;1.10;;;24.40;98.90;;;;;;4934032;29;20027;-76
2022/07/19 07:22:30;;;;;;;3.78;1.40;;;24.50;92.70;;;;;;4933558;29;20480;-76
2022/07/19 07:24:55;;;;;;;5.25;1.45;;;24.50;99.70;;;;;;4933162;29;20035;-75
2022/07/19 07:27:21;;;;;;;3.40;1.50;;;24.60;96.40;;;;;;4933824;29;20031;-76
2022/07/19 07:29:47;;;;;;;3.95;1.38;;;24.70;93.90;;;;;;4933513;29;20023;-76
2022/07/19 07:32:13;;;;;;;2.35;1.30;;;24.80;95.30;;;;;;4933357;29;20084;-76
2022/07/19 07:34:39;;;;;;;3.17;1.35;;;24.90;92.80;;;;;;4933116;29;20032;-76
2022/07/19 07:37:05;;;;;;;4.93;1.65;;;25.00;94.40;;;;;;4933386;29;20408;-76
2022/07/19 07:39:30;;;;;;;3.97;1.45;;;25.10;96.70;;;;;;4932933;29;20031;-76
2022/07/19 07:41:56;;;;;;;1.65;1.25;;;25.20;91.80;;;;;;4933305;29;20027;-76
2022/07/19 07:44:22;;;;;;;2.95;1.20;;;25.30;86.80;;;;;;4933552;29;20067;-75
2022/07/19 07:46:48;;;;;;;3.38;1.35;;;25.50;91.60;;;;;;4933360;29;20095;-76
2022/07/19 07:49:13;;;;;;;3.53;1.45;;;25.60;91.50;;;;;;4932200;29;20016;-76
2022/07/19 07:51:39;;;;;;;2.75;1.20;;;25.70;81.00;;;;;;4931447;29;20036;-76
2022/07/19 07:54:06;;;;;;;2.47;1.13;;;25.90;83.30;;;;;;4928514;29;20099;-76
2022/07/19 07:56:31;;;;;;;1.80;1.10;;;26.10;81.40;;;;;;4926955;29;20074;-77
2022/07/19 07:58:57;;;;;;;5.05;1.65;;;26.20;74.50;;;;;;4932709;29;20023;-77
2022/07/19 08:01:23;;;;;;;3.78;1.15;;;26.40;69.20;;;;;;4933221;29;20032;-78
2022/07/19 08:03:48;;;;;;;1.95;1.38;;;26.60;70.10;;;;;;4933687;29;20024;-77
2022/07/19 08:06:15;;;;;;;4.82;1.40;;;26.90;64.60;;;;;;4933351;29;20024;-74
2022/07/19 08:08:42;;;;;;;2.80;1.40;;;27.10;60.90;;;;;;4933245;29;20031;-77
2022/07/19 08:11:07;;;;;;;1.52;1.42;;;27.30;58.70;;;;;;4933648;29;20031;-78
2022/07/19 08:13:33;;;;;;;2.45;1.20;;;27.50;56.20;;;;;;4933378;29;20027;-77
2022/07/19 08:15:59;;;;;;;4.35;1.70;;;27.80;57.80;;;;;;4931867;29;20035;-77
2022/07/19 08:18:25;;;;;;;6.10;2.35;;;28.00;54.20;;;;;;4933457;29;20102;-78
2022/07/19 08:20:50;;;;;;;5.07;1.92;;;28.20;54.50;;;;;;4933520;29;20469;-78
2022/07/19 09:22:55;;;;;;;2.17;1.60;;;39.60;24.50;;;;;;5620076;23;20047;-79
2022/07/19 09:25:51;;;;;;;4.82;2.00;;;39.30;23.90;;;;;;4936213;29;20031;-79
2022/07/19 09:28:18;;;;;;;3.65;2.33;;;40.20;23.80;;;;;;4936401;29;20045;-79
2022/07/19 09:30:49;;;;;;;2.85;1.80;;;40.20;23.10;;;;;;4936099;29;20011;-79
2022/07/19 09:33:15;;;;;;;4.53;1.55;;;40.70;24.10;;;;;;4935914;29;20020;-79
2022/07/19 09:35:52;;;;;;;3.65;2.00;;;41.80;23.90;;;;;;4936457;29;20023;-77
2022/07/19 09:38:22;;;;;;;4.68;1.85;;;42.10;23.00;;;;;;4929528;29;20388;-77
2022/07/19 09:41:12;;;;;;;3.17;1.80;;;42.70;23.30;;;;;;4934490;29;20032;-77
2022/07/19 09:43:58;;;;;;;3.08;1.92;;;43.10;21.60;;;;;;4935492;29;20580;-79
2022/07/19 09:46:39;;;;;;;3.10;1.80;;;43.20;22.10;;;;;;4935806;29;20028;-77
2022/07/19 09:49:08;;;;;;;4.32;1.83;;;43.20;20.40;;;;;;4935571;29;20082;-79
2022/07/19 09:51:36;;;;;;;5.47;1.85;;;43.30;20.80;;;;;;4934546;29;20015;-75
2022/07/19 09:54:03;;;;;;;2.72;1.70;;;43.00;20.20;;;;;;4935392;29;20031;-77
2022/07/19 09:56:30;;;;;;;4.72;1.90;;;43.20;22.80;;;;;;4935534;29;20023;-79
2022/07/19 09:58:58;;;;;;;5.07;1.95;;;42.40;21.40;;;;;;4935705;29;20034;-79
2022/07/19 10:01:24;;;;;;;5.10;2.28;;;43.00;21.20;;;;;;4935500;29;20071;-77
2022/07/19 10:03:57;;;;;;;3.33;1.75;;;43.50;19.70;;;;;;4934362;29;20040;-77
2022/07/19 10:06:25;;;;;;;4.55;1.80;;;44.40;20.70;;;;;;4935320;29;20030;-77
2022/07/19 10:08:52;;;;;;;8.80;2.33;;;44.70;19.50;;;;;;4935286;29;20026;-79
2022/07/19 10:11:18;;;;;;;5.15;1.80;;;44.80;18.90;;;;;;4935536;29;20035;-77
2022/07/19 10:13:44;;;;;;;6.03;1.83;;;44.70;19.60;;;;;;4935375;29;20123;-77
2022/07/19 10:16:18;;;;;;;5.25;2.03;;;45.00;21.30;;;;;;4935248;29;20461;-77
2022/07/19 10:19:29;;;;;;;3.30;2.08;;;45.40;19.60;;;;;;4935170;29;20024;-77
2022/07/19 11:24:21;;;;;;;2.03;1.83;;;45.90;17.80;;;;;;4993628;23;20103;-77
2022/07/19 11:26:47;;;;;;;3.40;1.75;;;46.60;18.20;;;;;;4933480;29;20412;-78
2022/07/19 11:29:12;;;;;;;5.25;2.03;;;47.60;19.30;;;;;;4934199;29;20027;-78
2022/07/19 11:31:47;;;;;;;3.20;1.70;;;48.20;18.80;;;;;;4933938;29;20091;-78
2022/07/19 11:34:13;;;;;;;6.55;2.08;;;48.90;18.20;;;;;;4932680;29;20035;-78
2022/07/19 11:36:39;;;;;;;4.05;1.80;;;49.20;18.40;;;;;;4934156;29;20020;-77
2022/07/19 11:39:04;;;;;;;5.68;1.95;;;49.50;17.60;;;;;;4933582;29;20024;-77
2022/07/19 11:41:31;;;;;;;4.32;1.90;;;49.00;17.80;;;;;;4933293;29;20028;-78
2022/07/19 11:44:02;;;;;;;5.80;1.75;;;49.30;18.50;;;;;;4931901;29;20040;-78
2022/07/19 11:46:34;;;;;;;2.40;2.00;;;48.80;17.80;;;;;;4926854;29;20020;-78
2022/07/19 11:49:02;;;;;;;3.42;1.83;;;49.20;18.60;;;;;;4933492;29;20024;-77
2022/07/19 11:51:29;;;;;;;5.38;2.00;;;49.00;17.50;;;;;;4932694;29;20160;-77
2022/07/19 11:53:57;;;;;;;3.85;1.80;;;49.10;18.30;;;;;;4933302;29;20027;-77
2022/07/19 11:56:33;;;;;;;3.95;1.75;;;49.30;18.20;;;;;;4933765;29;20008;-77
2022/07/19 11:59:02;;;;;;;4.60;1.83;;;48.90;17.80;;;;;;4933367;29;20086;-77
2022/07/19 12:01:30;;;;;;;6.45;2.20;;;48.50;18.20;;;;;;4933713;29;20075;-77
2022/07/19 12:04:03;;;;;;;5.07;2.05;;;48.70;18.00;;;;;;4933683;29;20043;-77
2022/07/19 12:06:36;;;;;;;5.57;2.03;;;48.40;18.50;;;;;;4927979;29;20046;-77
2022/07/19 12:09:07;;;;;;;5.25;1.88;;;48.90;18.50;;;;;;4933560;29;20012;-77
2022/07/19 12:11:40;;;;;;;4.63;1.92;;;49.00;17.80;;;;;;4933640;29;20032;-78
2022/07/19 12:14:30;;;;;;;4.45;2.00;;;48.70;18.30;;;;;;4933657;29;20035;-77
2022/07/19 12:17:11;;;;;;;9.60;2.05;;;49.10;18.30;;;;;;4933450;29;20082;-78
2022/07/19 12:19:38;;;;;;;5.18;2.00;;;49.40;18.00;;;;;;4933579;29;20035;-77
2022/07/19 13:24:21;;;;;;;3.28;1.63;;;52.40;14.60;;;;;;5037513;23;20524;-78
2022/07/19 13:26:47;;;;;;;6.45;1.95;;;52.50;15.30;;;;;;4936326;29;20019;-78
2022/07/19 13:30:46;;;;;;;4.07;1.73;;;52.00;15.30;;;;;;5062844;28;20426;-83
2022/07/19 13:33:12;;;;;;;5.53;1.70;;;52.30;15.40;;;;;;5064689;28;20021;-81
2022/07/19 13:35:38;;;;;;;4.55;1.88;;;51.80;15.60;;;;;;5062964;28;20017;-79
2022/07/19 13:38:31;;;;;;;2.25;1.77;;;52.00;15.60;;;;;;5108110;27;20385;-79
2022/07/19 13:40:57;;;;;;;3.17;1.70;;;53.10;16.30;;;;;;5105580;28;20081;-79
2022/07/19 13:43:24;;;;;;;4.82;2.10;;;53.50;15.00;;;;;;5104597;28;20084;-80
2022/07/19 13:45:53;;;;;;;4.43;1.70;;;52.60;14.30;;;;;;5106580;28;20019;-79
2022/07/19 13:48:19;;;;;;;7.50;1.90;;;52.30;14.50;;;;;;5102401;28;20016;-78
2022/07/19 13:50:44;;;;;;;2.95;1.80;;;52.00;15.30;;;;;;5104945;28;20050;-78
2022/07/19 13:53:10;;;;;;;3.75;2.13;;;50.80;15.70;;;;;;5105558;28;20460;-78
2022/07/19 13:55:36;;;;;;;4.03;1.98;;;51.90;17.00;;;;;;5107308;28;20023;-78
2022/07/19 13:58:02;;;;;;;4.18;1.67;;;51.10;16.20;;;;;;5106264;28;20162;-78
2022/07/19 14:00:28;;;;;;;7.10;2.00;;;50.70;16.90;;;;;;5105525;28;20118;-78
2022/07/19 14:02:54;;;;;;;6.18;1.80;;;50.90;16.00;;;;;;5107533;28;20065;-78
2022/07/19 14:05:29;;;;;;;4.40;2.03;;;50.60;16.90;;;;;;5107544;28;20077;-79
2022/07/19 14:07:55;;;;;;;4.03;1.95;;;51.00;17.40;;;;;;5106961;28;20051;-78
2022/07/19 14:10:20;;;;;;;3.35;1.80;;;51.00;15.80;;;;;;5106084;28;20111;-79
2022/07/19 14:12:46;;;;;;;4.97;1.77;;;51.30;15.90;;;;;;5105890;28;20042;-78
2022/07/19 14:15:12;;;;;;;5.68;1.75;;;52.20;16.80;;;;;;5107841;28;20012;-78
2022/07/19 14:17:38;;;;;;;3.90;1.95;;;52.40;16.80;;;;;;5107646;28;20028;-78
2022/07/19 14:20:05;;;;;;;3.00;1.83;;;52.60;15.50;;;;;;5107916;28;20028;-78
2022/07/19 17:23:47;;;;;;;9.18;3.90;;;33.10;32.60;;;;;;5536688;22;20052;-78
2022/07/19 17:26:14;;;;;;;8.45;4.65;;;31.30;38.00;;;;;;5028328;28;20021;-78
2022/07/19 17:28:40;;;;;;;10.25;5.40;;;30.00;40.80;;;;;;5030269;28;20024;-78
2022/07/19 17:31:06;;;;;;;11.60;7.22;;;28.70;44.50;;;;;;5030430;28;20014;-77
2022/07/19 17:33:32;;;;;;;17.60;7.90;;;27.80;48.30;;;;;;5027284;28;20014;-79
2022/07/19 17:35:59;;;;;;;14.88;8.52;;;27.00;54.70;;;;;;5011724;28;20030;-77
2022/07/19 17:38:26;;;;;;;21.73;10.73;;;26.50;63.40;;;;;;5011776;28;20057;-77
2022/07/19 17:40:52;;;;;;;20.15;11.57;;;26.20;72.40;;;;;;5011606;28;20399;-78
2022/07/19 17:43:18;;;;;;;22.58;13.18;;;25.60;83.60;;;;;;5011921;28;20022;-78
2022/07/19 17:45:44;;;;;;;25.83;13.73;;;25.40;90.40;;;;;;5011847;28;20025;-78
2022/07/19 17:48:09;;;;;;;25.27;13.30;;;25.20;95.80;;;;;;5009342;28;20034;-78
2022/07/19 17:50:35;;;;;;;25.80;13.63;;;25.00;95.80;;;;;;5013052;28;20025;-78
2022/07/19 17:53:01;;;;;;;22.40;14.93;;;24.90;95.70;;;;;;5011346;28;20022;-78
2022/07/19 17:55:27;;;;;;;27.15;14.55;;;25.00;95.40;;;;;;5009152;28;20029;-77
2022/07/19 17:57:53;;;;;;;19.77;12.40;;;24.90;94.30;;;;;;5011916;28;20117;-78
2022/07/19 18:00:18;;;;;;;23.27;13.35;;;24.90;93.20;;;;;;5011539;28;20018;-78
2022/07/19 18:02:44;;;;;;;32.22;13.45;;;25.00;92.70;;;;;;5009000;28;20022;-78
2022/07/19 18:05:10;;;;;;;20.88;11.68;;;25.10;91.10;;;;;;5011982;28;20133;-78
2022/07/19 18:07:36;;;;;;;21.40;12.27;;;25.20;89.20;;;;;;5023796;28;20075;-78
2022/07/19 18:10:04;;;;;;;24.02;12.98;;;25.30;88.30;;;;;;5008914;28;20029;-78
2022/07/19 18:12:30;;;;;;;17.90;11.10;;;25.30;86.90;;;;;;5011371;28;20101;-77
2022/07/19 18:14:57;;;;;;;19.13;11.10;;;25.30;83.50;;;;;;5009650;28;20117;-77
2022/07/19 18:17:23;;;;;;;23.90;12.43;;;25.30;83.80;;;;;;5018469;28;20049;-78
2022/07/19 18:19:49;;;;;;;22.10;11.13;;;25.40;77.90;;;;;;5011920;28;20025;-79
2022/07/19 18:22:15;;;;;;;19.67;11.20;;;25.50;75.40;;;;;;5013204;28;20490;-78
2022/07/19 18:24:41;;;;;;;17.23;11.70;;;25.50;74.40;;;;;;5013589;28;20091;-79
2022/07/19 18:27:09;;;;;;;17.00;10.25;;;25.60;75.50;;;;;;5015148;28;20045;-78
2022/07/19 18:29:35;;;;;;;17.25;10.98;;;25.60;79.00;;;;;;5014911;28;20052;-79
2022/07/19 18:32:01;;;;;;;20.77;10.60;;;25.40;83.50;;;;;;5014820;28;20463;-79
2022/07/19 18:34:29;;;;;;;21.02;12.82;;;25.40;87.70;;;;;;5012983;28;20436;-78
2022/07/19 18:36:55;;;;;;;21.33;11.35;;;25.20;86.50;;;;;;5014157;28;20401;-79
2022/07/19 18:39:20;;;;;;;19.50;10.93;;;25.20;86.10;;;;;;5014726;28;20018;-78
2022/07/19 18:41:46;;;;;;;20.13;12.63;;;25.20;89.00;;;;;;5014784;28;20029;-78
2022/07/19 18:44:12;;;;;;;22.15;13.52;;;25.20;91.80;;;;;;5023441;28;20026;-78
2022/07/19 18:46:38;;;;;;;25.00;14.68;;;25.10;98.20;;;;;;5014814;28;20036;-78
2022/07/19 18:49:03;;;;;;;28.40;14.52;;;24.80;99.90;;;;;;5012301;28;20131;-78
2022/07/19 18:51:29;;;;;;;23.02;13.00;;;24.50;99.90;;;;;;5016056;28;20025;-83
2022/07/19 18:53:55;;;;;;;28.45;13.40;;;24.20;99.90;;;;;;5011368;28;20145;-83
2022/07/19 18:56:21;;;;;;;27.58;14.60;;;24.20;99.90;;;;;;5022208;28;20026;-80
2022/07/19 18:58:47;;;;;;;20.15;12.20;;;23.90;99.90;;;;;;5029664;28;20110;-79
2022/07/19 19:01:12;;;;;;;27.95;13.45;;;23.70;99.90;;;;;;5016760;28;20115;-79
2022/07/19 19:03:38;;;;;;;27.95;13.95;;;23.50;99.90;;;;;;5022554;28;20036;-78
2022/07/19 19:06:04;;;;;;;21.77;14.80;;;23.30;99.90;;;;;;5012061;28;20032;-79
2022/07/19 19:08:30;;;;;;;27.65;15.15;;;23.00;99.90;;;;;;5025489;28;20482;-78
2022/07/19 19:10:56;;;;;;;26.00;15.95;;;22.80;99.90;;;;;;5014178;28;20084;-81
2022/07/19 19:13:22;;;;;;;30.17;17.20;;;22.60;99.90;;;;;;5019406;28;20482;-79
2022/07/19 19:15:48;;;;;;;27.25;16.25;;;22.50;99.90;;;;;;5021336;28;20029;-78
2022/07/19 19:18:13;;;;;;;29.33;17.20;;;22.40;99.90;;;;;;5023096;28;20492;-79
2022/07/19 19:20:41;;;;;;;26.90;16.00;;;22.40;99.90;;;;;;5027009;28;20113;-78
2022/07/19 20:22:41;;;;;;;28.42;17.45;;;20.50;99.90;;;;;;6064219;23;20005;-79
2022/07/19 20:25:07;;;;;;;27.23;16.52;;;20.50;99.90;;;;;;5025180;28;20036;-79
2022/07/19 20:27:33;;;;;;;25.67;15.45;;;20.40;99.90;;;;;;5024299;28;20025;-79
2022/07/19 20:29:59;;;;;;;22.38;14.50;;;20.30;99.90;;;;;;5009865;28;20409;-78
2022/07/19 20:32:25;;;;;;;27.05;15.60;;;20.30;99.90;;;;;;5027242;28;20383;-79
2022/07/19 20:34:50;;;;;;;25.35;15.02;;;20.30;99.90;;;;;;5021575;28;20167;-90
2022/07/19 20:37:18;;;;;;;33.00;14.73;;;20.30;99.90;;;;;;5014377;28;20040;-85
2022/07/19 20:39:44;;;;;;;29.02;14.55;;;20.20;99.90;;;;;;5003822;28;20021;-90
2022/07/19 20:42:10;;;;;;;24.83;14.77;;;20.20;99.90;;;;;;5019622;28;20024;-88
2022/07/19 20:44:36;;;;;;;29.55;14.63;;;20.10;99.90;;;;;;5011013;28;20107;-86
2022/07/19 20:47:03;;;;;;;30.15;15.73;;;20.00;99.90;;;;;;4999394;28;20088;-86
2022/07/19 20:49:29;;;;;;;36.25;16.15;;;20.00;99.90;;;;;;5004309;28;20845;-82
2022/07/19 20:51:55;;;;;;;28.65;15.25;;;19.90;99.90;;;;;;5010528;28;20014;-81
2022/07/19 20:54:21;;;;;;;30.50;16.02;;;19.90;99.90;;;;;;5008770;28;20030;-82
2022/07/19 20:56:46;;;;;;;30.33;16.90;;;19.90;99.90;;;;;;5014828;28;20044;-83
2022/07/19 20:59:16;;;;;;;28.92;15.98;;;19.80;99.90;;;;;;5007577;28;20617;-82
2022/07/19 21:01:44;;;;;;;29.20;16.48;;;19.80;99.90;;;;;;4999647;28;20056;-82
2022/07/19 21:04:13;;;;;;;30.33;14.93;;;19.80;99.90;;;;;;4998998;28;20109;-82
2022/07/19 21:06:39;;;;;;;24.73;14.55;;;19.70;99.90;;;;;;5001757;28;20025;-86
2022/07/19 21:09:05;;;;;;;29.70;14.63;;;19.80;99.90;;;;;;5017005;28;20026;-82
2022/07/19 21:11:31;;;;;;;37.28;17.55;;;19.80;99.90;;;;;;5007988;28;20041;-78
2022/07/19 21:13:57;;;;;;;26.30;15.43;;;19.80;99.90;;;;;;5007338;28;20040;-78
2022/07/19 21:16:23;;;;;;;31.42;14.85;;;19.80;99.90;;;;;;5010932;28;20463;-78
2022/07/19 21:18:49;;;;;;;26.25;15.48;;;19.80;99.90;;;;;;5015281;28;20022;-76
2022/07/19 21:21:15;;;;;;;29.40;14.85;;;19.80;99.90;;;;;;5019462;28;20017;-81
2022/07/19 21:23:41;;;;;;;35.08;15.95;;;19.70;99.90;;;;;;5019936;28;20053;-79
2022/07/19 21:26:06;;;;;;;30.17;14.70;;;19.70;99.90;;;;;;4997825;28;20037;-78
2022/07/19 21:28:34;;;;;;;26.77;14.13;;;19.70;99.90;;;;;;5015697;28;20052;-79
2022/07/19 21:31:00;;;;;;;27.13;14.65;;;19.80;99.90;;;;;;5005014;28;20032;-78
2022/07/19 21:33:37;;;;;;;27.15;12.70;;;19.80;99.90;;;;;;5019058;28;20026;-78
2022/07/19 21:36:04;;;;;;;24.38;12.15;;;19.80;99.90;;;;;;5001823;28;20021;-78
2022/07/19 21:38:32;;;;;;;25.02;11.32;;;19.80;99.90;;;;;;5019559;28;20038;-78
2022/07/19 21:40:57;;;;;;;19.45;10.65;;;19.70;99.90;;;;;;5023027;28;20021;-78
2022/07/19 21:43:23;;;;;;;24.35;11.00;;;19.70;99.90;;;;;;5025177;28;20029;-79
2022/07/19 21:45:49;;;;;;;23.45;10.85;;;19.60;99.90;;;;;;5022292;28;20022;-81
2022/07/19 21:48:16;;;;;;;20.08;10.32;;;19.50;99.90;;;;;;5019773;28;20026;-79
2022/07/19 21:50:41;;;;;;;23.67;10.82;;;19.50;99.90;;;;;;5013570;28;20022;-78
2022/07/19 22:52:40;;;;;;;16.85;8.43;;;19.10;99.90;;;;;;6118592;23;20012;-76
2022/07/19 22:55:07;;;;;;;21.15;7.78;;;19.10;99.90;;;;;;5013373;28;20030;-77
2022/07/19 22:57:33;;;;;;;17.35;7.50;;;19.00;99.90;;;;;;5033189;28;20041;-77
2022/07/19 22:59:58;;;;;;;21.52;8.05;;;19.00;99.90;;;;;;5032924;28;20052;-76
2022/07/19 23:02:24;;;;;;;15.68;7.65;;;18.90;99.90;;;;;;5033187;28;20034;-77
2022/07/19 23:04:50;;;;;;;18.45;7.40;;;18.90;99.90;;;;;;5021415;28;20018;-78
2022/07/19 23:07:16;;;;;;;18.17;7.65;;;18.90;99.90;;;;;;5012303;28;20040;-77
2022/07/19 23:09:41;;;;;;;14.85;7.20;;;18.90;99.90;;;;;;5013505;28;20115;-77
2022/07/19 23:12:08;;;;;;;11.95;6.75;;;18.80;99.90;;;;;;5021038;28;20050;-77
2022/07/19 23:14:34;;;;;;;12.05;6.93;;;18.80;99.90;;;;;;5014347;28;20531;-77
2022/07/19 23:16:59;;;;;;;11.57;6.38;;;18.80;99.90;;;;;;5013881;28;20029;-77
2022/07/19 23:19:25;;;;;;;15.77;6.80;;;18.80;99.90;;;;;;5016572;28;20024;-78
2022/07/19 23:21:51;;;;;;;14.27;6.70;;;18.80;99.90;;;;;;5013460;28;20033;-78
2022/07/19 23:24:17;;;;;;;16.40;6.82;;;18.70;99.90;;;;;;5015945;28;20513;-77
2022/07/19 23:26:43;;;;;;;10.65;6.93;;;18.70;99.90;;;;;;5013838;28;20022;-78
2022/07/19 23:29:08;;;;;;;14.13;6.85;;;18.60;99.90;;;;;;5012271;28;20025;-77
2022/07/19 23:31:34;;;;;;;13.60;6.45;;;18.60;99.90;;;;;;5011744;28;20121;-77
2022/07/19 23:34:00;;;;;;;14.27;6.60;;;18.50;99.90;;;;;;5013382;28;20026;-77
2022/07/19 23:36:26;;;;;;;12.73;6.50;;;18.50;99.90;;;;;;5013835;28;20025;-76
2022/07/19 23:38:52;;;;;;;11.48;6.25;;;18.50;99.90;;;;;;5013662;28;20022;-77
2022/07/19 23:41:18;;;;;;;11.63;5.90;;;18.40;99.90;;;;;;5013641;28;20152;-76
2022/07/19 23:43:44;;;;;;;10.35;6.57;;;18.40;99.90;;;;;;5013783;28;20021;-77
2022/07/19 23:46:12;;;;;;;13.73;6.25;;;18.30;99.90;;;;;;5013753;28;20085;-77
2022/07/19 23:48:39;;;;;;;10.32;6.25;;;18.20;99.90;;;;;;5013062;28;20378;-78
2022/07/19 23:51:06;;;;;;;11.13;6.72;;;18.10;99.90;;;;;;5013444;28;20018;-77
